Nampa, ID (83651)

9:06 AM MDT on July 29, 2016 (GMT -0600)
Willow Creek | | Change Station
Active Advisory: Fire Weather Watch

Elev 2487 ft 43.56 °N, 116.60 °W | Updated 2 minutes ago

Clear
Clear
85.1 °F
Feels Like 83 °F
N
2.7
Wind Variable Wind from NNE

Today
High -- | Low -- °F
--% Chance of Precip.
Yesterday
High -- | Low -- °F
Precip. -- in
Pressure 29.99 in
Visibility 10.0 miles
Clouds Clear
Heat Index 83 °F
Dew Point 53 °F
Humidity 33%
Rainfall 0.00 in
Snow Depth Not available.
6:33 AM 9:11 PM
Waning Crescent, 21% visible
METAR KMAN 291455Z AUTO 00000KT 10SM CLR 23/12 A2999 RMK A01
Pressure 29.99 in
Visibility 10.0 miles
Clouds Clear
Heat Index 83 °F
Dew Point 53 °F
Humidity 33%
Rainfall 0.00 in
Snow Depth Not available.
6:33 AM 9:11 PM
Waning Crescent, 21% visible
METAR KMAN 291455Z AUTO 00000KT 10SM CLR 23/12 A2999 RMK A01

10-Day Weather Forecast

Almanac

Astronomy

Jul. 29, 2016 Rise Set
Actual Time
Civil Twilight
Nautical Twilight
Astronomical Twilight
Moon
Length of Visible Light
Length of Day
Tomorrow will be .
, % of the Moon is Illuminated

Today's Extremes

State Highs State Lows

Community

WunderPhotos

Upload Photos

1,928,345 photos uploaded!

WunderBlog® & News

Nearby

Air Quality

  Air Quality AQ Index Pollutant
Not available.

Snow Depth

Station Depth Elevation

Earthquake Activity

City Distance Mag. Time & Date
Minimum magnitude displayed is 2.5.

Coastal Water Temperatures

Place Temperature

Stations

Nearby Weather Stations

Station Location Temp. Windchill Dew Point Humidity Wind Precip. Elev Updated Type
                   

Watches & Warnings

Fire Weather Watch
Issued: 7:34 AM PDT Jul. 29, 2016 – National Weather Service

... Fire Weather Watch for lightning in effect from Saturday
afternoon through Saturday evening across the Owyhee Mountains
... Southern Highlands and Vale blm... which are fire weather
zones 423 426 and 637...

The National Weather Service in Boise has issued a Fire Weather
Watch for lightning... which is in effect from Saturday afternoon
through Saturday evening.

* Thunderstorms... scattered in coverage. Developing around noon
MDT and continuing into Saturday evening.

* Outflow winds... gusts to 50 mph possible... along with abrupt
shifts in wind direction.

Precautionary/preparedness actions...

A Fire Weather Watch means that critical fire weather conditions
are forecast to occur. Listen for later forecasts and possible
red flag warnings.




L